sensor_id;sensor_type;location;lat;lon;timestamp;P1;durP1;ratioP1;P2;durP2;ratioP2
56363;SDS011;42261;52.094;4.326;2024-03-23T00:55:59;13.25;;;11.93;;
56363;SDS011;42261;52.094;4.326;2024-03-23T00:58:45;12.77;;;11.60;;
56363;SDS011;42261;52.094;4.326;2024-03-23T01:01:29;12.82;;;11.88;;
56363;SDS011;42261;52.094;4.326;2024-03-23T01:04:13;12.38;;;11.27;;
56363;SDS011;42261;52.094;4.326;2024-03-23T01:06:57;13.15;;;11.70;;
56363;SDS011;42261;52.094;4.326;2024-03-23T01:09:41;12.88;;;11.57;;
56363;SDS011;42261;52.094;4.326;2024-03-23T01:12:25;12.88;;;12.13;;
56363;SDS011;42261;52.094;4.326;2024-03-23T01:15:09;12.70;;;11.75;;
56363;SDS011;42261;52.094;4.326;2024-03-23T01:17:53;12.15;;;11.10;;
56363;SDS011;42261;52.094;4.326;2024-03-23T01:20:37;12.77;;;11.48;;
56363;SDS011;42261;52.094;4.326;2024-03-23T01:23:21;12.05;;;11.32;;
56363;SDS011;42261;52.094;4.326;2024-03-23T01:26:05;12.43;;;11.27;;
56363;SDS011;42261;52.094;4.326;2024-03-23T01:28:49;13.93;;;11.77;;
56363;SDS011;42261;52.094;4.326;2024-03-23T01:31:34;12.00;;;10.90;;
56363;SDS011;42261;52.094;4.326;2024-03-23T01:34:18;12.35;;;11.43;;
56363;SDS011;42261;52.094;4.326;2024-03-23T01:37:04;12.02;;;10.90;;
56363;SDS011;42261;52.094;4.326;2024-03-23T01:39:48;11.07;;;10.07;;
56363;SDS011;42261;52.094;4.326;2024-03-23T01:42:32;11.60;;;10.80;;
56363;SDS011;42261;52.094;4.326;2024-03-23T01:45:16;11.05;;;10.23;;
56363;SDS011;42261;52.094;4.326;2024-03-23T01:48:00;10.63;;;9.70;;
56363;SDS011;42261;52.094;4.326;2024-03-23T01:50:44;10.38;;;9.55;;
56363;SDS011;42261;52.094;4.326;2024-03-23T01:53:29;10.50;;;9.68;;
56363;SDS011;42261;52.094;4.326;2024-03-23T01:56:13;11.25;;;10.13;;
56363;SDS011;42261;52.094;4.326;2024-03-23T01:58:57;10.93;;;9.90;;
56363;SDS011;42261;52.094;4.326;2024-03-23T02:01:41;12.43;;;10.00;;
56363;SDS011;42261;52.094;4.326;2024-03-23T02:04:25;9.23;;;8.60;;
56363;SDS011;42261;52.094;4.326;2024-03-23T02:07:10;11.32;;;8.80;;
56363;SDS011;42261;52.094;4.326;2024-03-23T02:09:54;9.10;;;8.30;;
56363;SDS011;42261;52.094;4.326;2024-03-23T02:12:39;11.60;;;10.30;;
56363;SDS011;42261;52.094;4.326;2024-03-23T02:15:23;11.70;;;8.43;;
56363;SDS011;42261;52.094;4.326;2024-03-23T02:18:09;9.80;;;8.77;;
56363;SDS011;42261;52.094;4.326;2024-03-23T02:20:54;9.73;;;8.88;;
56363;SDS011;42261;52.094;4.326;2024-03-23T02:23:39;9.90;;;8.88;;
56363;SDS011;42261;52.094;4.326;2024-03-23T02:26:23;11.80;;;8.70;;
56363;SDS011;42261;52.094;4.326;2024-03-23T02:29:07;8.80;;;8.10;;
56363;SDS011;42261;52.094;4.326;2024-03-23T02:31:52;9.43;;;8.73;;
56363;SDS011;42261;52.094;4.326;2024-03-23T02:34:36;9.30;;;8.40;;
56363;SDS011;42261;52.094;4.326;2024-03-23T02:37:20;9.63;;;7.68;;
56363;SDS011;42261;52.094;4.326;2024-03-23T02:40:05;9.25;;;8.18;;
56363;SDS011;42261;52.094;4.326;2024-03-23T02:42:50;9.05;;;8.35;;
56363;SDS011;42261;52.094;4.326;2024-03-23T02:45:34;8.40;;;7.63;;
56363;SDS011;42261;52.094;4.326;2024-03-23T02:48:18;10.63;;;9.02;;
56363;SDS011;42261;52.094;4.326;2024-03-23T02:51:02;9.63;;;8.82;;
56363;SDS011;42261;52.094;4.326;2024-03-23T02:53:46;10.40;;;7.60;;
56363;SDS011;42261;52.094;4.326;2024-03-23T02:56:32;9.07;;;8.18;;
56363;SDS011;42261;52.094;4.326;2024-03-23T02:59:16;8.25;;;7.60;;
56363;SDS011;42261;52.094;4.326;2024-03-23T03:02:00;9.43;;;8.38;;
56363;SDS011;42261;52.094;4.326;2024-03-23T03:04:45;13.38;;;8.68;;
56363;SDS011;42261;52.094;4.326;2024-03-23T03:07:29;8.38;;;7.32;;
56363;SDS011;42261;52.094;4.326;2024-03-23T03:10:13;9.68;;;8.48;;
56363;SDS011;42261;52.094;4.326;2024-03-23T03:12:57;8.50;;;7.57;;
56363;SDS011;42261;52.094;4.326;2024-03-23T03:15:43;8.40;;;8.02;;
56363;SDS011;42261;52.094;4.326;2024-03-23T03:18:27;9.02;;;8.07;;
56363;SDS011;42261;52.094;4.326;2024-03-23T03:21:11;8.52;;;7.70;;
56363;SDS011;42261;52.094;4.326;2024-03-23T03:23:55;7.95;;;7.43;;
56363;SDS011;42261;52.094;4.326;2024-03-23T03:26:40;9.38;;;7.47;;
56363;SDS011;42261;52.094;4.326;2024-03-23T03:29:24;8.63;;;7.80;;
56363;SDS011;42261;52.094;4.326;2024-03-23T03:32:08;10.85;;;8.52;;
56363;SDS011;42261;52.094;4.326;2024-03-23T03:34:52;8.65;;;7.78;;
56363;SDS011;42261;52.094;4.326;2024-03-23T03:37:36;7.63;;;6.80;;
56363;SDS011;42261;52.094;4.326;2024-03-23T03:40:20;11.00;;;7.05;;
56363;SDS011;42261;52.094;4.326;2024-03-23T03:43:04;9.98;;;8.60;;
56363;SDS011;42261;52.094;4.326;2024-03-23T03:45:55;8.07;;;7.45;;
56363;SDS011;42261;52.094;4.326;2024-03-23T03:48:41;9.40;;;7.72;;
56363;SDS011;42261;52.094;4.326;2024-03-23T03:51:25;9.68;;;8.52;;
56363;SDS011;42261;52.094;4.326;2024-03-23T03:54:09;9.52;;;8.63;;
56363;SDS011;42261;52.094;4.326;2024-03-23T03:56:53;13.20;;;8.48;;
56363;SDS011;42261;52.094;4.326;2024-03-23T03:59:37;8.18;;;7.35;;
56363;SDS011;42261;52.094;4.326;2024-03-23T04:02:21;10.82;;;8.60;;
56363;SDS011;42261;52.094;4.326;2024-03-23T04:05:05;9.18;;;8.15;;
56363;SDS011;42261;52.094;4.326;2024-03-23T04:07:49;9.57;;;8.48;;
56363;SDS011;42261;52.094;4.326;2024-03-23T04:10:33;12.25;;;8.35;;
56363;SDS011;42261;52.094;4.326;2024-03-23T04:13:18;8.98;;;8.15;;
56363;SDS011;42261;52.094;4.326;2024-03-23T04:16:03;11.15;;;10.02;;
56363;SDS011;42261;52.094;4.326;2024-03-23T04:18:48;8.80;;;8.02;;
56363;SDS011;42261;52.094;4.326;2024-03-23T04:21:32;12.35;;;9.00;;
56363;SDS011;42261;52.094;4.326;2024-03-23T04:24:16;11.73;;;8.90;;
56363;SDS011;42261;52.094;4.326;2024-03-23T04:27:03;11.68;;;8.43;;
56363;SDS011;42261;52.094;4.326;2024-03-23T04:29:47;10.15;;;8.88;;
56363;SDS011;42261;52.094;4.326;2024-03-23T04:32:32;10.40;;;9.45;;
56363;SDS011;42261;52.094;4.326;2024-03-23T04:35:16;16.48;;;9.68;;
56363;SDS011;42261;52.094;4.326;2024-03-23T04:38:01;10.80;;;9.80;;
56363;SDS011;42261;52.094;4.326;2024-03-23T04:40:45;11.75;;;10.85;;
56363;SDS011;42261;52.094;4.326;2024-03-23T04:43:29;12.10;;;10.13;;
56363;SDS011;42261;52.094;4.326;2024-03-23T04:46:14;12.05;;;9.52;;
56363;SDS011;42261;52.094;4.326;2024-03-23T04:48:59;10.80;;;8.65;;
56363;SDS011;42261;52.094;4.326;2024-03-23T04:51:43;9.57;;;8.98;;
56363;SDS011;42261;52.094;4.326;2024-03-23T04:54:29;10.32;;;9.50;;
56363;SDS011;42261;52.094;4.326;2024-03-23T04:57:13;14.57;;;9.43;;
56363;SDS011;42261;52.094;4.326;2024-03-23T04:59:57;10.40;;;9.40;;
56363;SDS011;42261;52.094;4.326;2024-03-23T05:02:42;11.00;;;9.82;;
56363;SDS011;42261;52.094;4.326;2024-03-23T05:05:26;10.27;;;9.45;;
56363;SDS011;42261;52.094;4.326;2024-03-23T05:08:11;11.32;;;10.20;;
56363;SDS011;42261;52.094;4.326;2024-03-23T05:10:57;9.48;;;8.52;;
56363;SDS011;42261;52.094;4.326;2024-03-23T05:13:43;10.75;;;9.82;;
56363;SDS011;42261;52.094;4.326;2024-03-23T05:16:27;9.90;;;9.10;;
56363;SDS011;42261;52.094;4.326;2024-03-23T05:19:11;12.45;;;9.65;;
56363;SDS011;42261;52.094;4.326;2024-03-23T05:21:56;15.07;;;10.82;;
56363;SDS011;42261;52.094;4.326;2024-03-23T05:24:41;11.15;;;10.35;;
56363;SDS011;42261;52.094;4.326;2024-03-23T05:27:24;11.60;;;10.52;;
56363;SDS011;42261;52.094;4.326;2024-03-23T05:30:09;10.05;;;9.27;;
56363;SDS011;42261;52.094;4.326;2024-03-23T05:32:55;12.50;;;10.18;;
56363;SDS011;42261;52.094;4.326;2024-03-23T05:35:39;11.38;;;10.05;;
56363;SDS011;42261;52.094;4.326;2024-03-23T05:38:23;11.27;;;10.45;;
56363;SDS011;42261;52.094;4.326;2024-03-23T05:41:08;10.32;;;9.60;;
56363;SDS011;42261;52.094;4.326;2024-03-23T05:43:52;10.40;;;9.60;;
56363;SDS011;42261;52.094;4.326;2024-03-23T05:46:36;10.60;;;9.77;;
56363;SDS011;42261;52.094;4.326;2024-03-23T05:49:19;11.88;;;10.30;;
56363;SDS011;42261;52.094;4.326;2024-03-23T05:52:05;10.73;;;9.48;;
56363;SDS011;42261;52.094;4.326;2024-03-23T05:54:48;13.13;;;9.98;;
56363;SDS011;42261;52.094;4.326;2024-03-23T05:57:33;14.85;;;11.00;;
56363;SDS011;42261;52.094;4.326;2024-03-23T06:00:17;10.32;;;9.52;;
56363;SDS011;42261;52.094;4.326;2024-03-23T06:03:01;9.98;;;9.38;;
56363;SDS011;42261;52.094;4.326;2024-03-23T06:05:45;9.63;;;8.95;;
56363;SDS011;42261;52.094;4.326;2024-03-23T06:08:29;9.85;;;8.93;;
56363;SDS011;42261;52.094;4.326;2024-03-23T06:11:13;9.55;;;8.82;;
56363;SDS011;42261;52.094;4.326;2024-03-23T06:13:58;10.50;;;9.60;;
56363;SDS011;42261;52.094;4.326;2024-03-23T06:16:42;9.98;;;9.18;;
56363;SDS011;42261;52.094;4.326;2024-03-23T06:19:28;10.23;;;9.35;;
56363;SDS011;42261;52.094;4.326;2024-03-23T06:22:13;12.82;;;9.80;;
56363;SDS011;42261;52.094;4.326;2024-03-23T06:24:57;10.02;;;9.25;;
56363;SDS011;42261;52.094;4.326;2024-03-23T06:27:41;9.90;;;9.07;;
56363;SDS011;42261;52.094;4.326;2024-03-23T06:30:25;9.70;;;8.77;;
56363;SDS011;42261;52.094;4.326;2024-03-23T06:33:10;8.70;;;7.95;;
56363;SDS011;42261;52.094;4.326;2024-03-23T06:35:55;13.38;;;9.00;;
56363;SDS011;42261;52.094;4.326;2024-03-23T06:38:40;10.80;;;9.95;;
56363;SDS011;42261;52.094;4.326;2024-03-23T06:41:25;10.77;;;9.85;;
56363;SDS011;42261;52.094;4.326;2024-03-23T06:44:10;10.90;;;9.82;;
56363;SDS011;42261;52.094;4.326;2024-03-23T06:46:54;10.80;;;9.80;;
56363;SDS011;42261;52.094;4.326;2024-03-23T06:49:39;10.50;;;9.40;;
56363;SDS011;42261;52.094;4.326;2024-03-23T06:52:23;12.25;;;9.57;;
56363;SDS011;42261;52.094;4.326;2024-03-23T06:55:07;12.23;;;10.27;;
56363;SDS011;42261;52.094;4.326;2024-03-23T06:57:52;10.57;;;8.85;;
56363;SDS011;42261;52.094;4.326;2024-03-23T07:00:36;9.60;;;9.00;;
56363;SDS011;42261;52.094;4.326;2024-03-23T07:03:20;10.10;;;9.30;;
56363;SDS011;42261;52.094;4.326;2024-03-23T07:06:05;10.80;;;8.68;;
56363;SDS011;42261;52.094;4.326;2024-03-23T07:08:49;9.50;;;8.23;;
56363;SDS011;42261;52.094;4.326;2024-03-23T07:11:33;11.35;;;8.98;;
56363;SDS011;42261;52.094;4.326;2024-03-23T07:14:17;9.75;;;8.80;;
56363;SDS011;42261;52.094;4.326;2024-03-23T07:17:01;10.45;;;8.75;;
56363;SDS011;42261;52.094;4.326;2024-03-23T07:19:46;9.68;;;8.73;;
56363;SDS011;42261;52.094;4.326;2024-03-23T07:22:30;10.05;;;8.68;;
56363;SDS011;42261;52.094;4.326;2024-03-23T07:25:15;9.52;;;8.80;;
56363;SDS011;42261;52.094;4.326;2024-03-23T07:28:00;9.63;;;8.88;;
56363;SDS011;42261;52.094;4.326;2024-03-23T07:30:45;9.70;;;8.57;;
56363;SDS011;42261;52.094;4.326;2024-03-23T07:33:28;9.02;;;8.18;;
56363;SDS011;42261;52.094;4.326;2024-03-23T07:36:13;9.48;;;8.75;;
56363;SDS011;42261;52.094;4.326;2024-03-23T07:38:57;9.57;;;8.77;;
56363;SDS011;42261;52.094;4.326;2024-03-23T07:41:46;8.20;;;7.60;;
56363;SDS011;42261;52.094;4.326;2024-03-23T07:44:30;10.98;;;8.65;;
56363;SDS011;42261;52.094;4.326;2024-03-23T07:47:15;12.85;;;9.43;;
56363;SDS011;42261;52.094;4.326;2024-03-23T07:49:58;9.90;;;8.93;;
56363;SDS011;42261;52.094;4.326;2024-03-23T07:52:42;13.50;;;10.05;;
56363;SDS011;42261;52.094;4.326;2024-03-23T07:55:29;10.50;;;9.43;;
56363;SDS011;42261;52.094;4.326;2024-03-23T07:58:13;10.15;;;9.40;;
56363;SDS011;42261;52.094;4.326;2024-03-23T08:01:03;14.98;;;8.73;;
56363;SDS011;42261;52.094;4.326;2024-03-23T08:03:47;9.32;;;8.50;;
56363;SDS011;42261;52.094;4.326;2024-03-23T08:06:33;13.13;;;8.77;;
56363;SDS011;42261;52.094;4.326;2024-03-23T08:09:17;9.48;;;8.40;;
56363;SDS011;42261;52.094;4.326;2024-03-23T08:12:02;9.10;;;8.18;;
56363;SDS011;42261;52.094;4.326;2024-03-23T08:14:46;10.57;;;9.70;;
56363;SDS011;42261;52.094;4.326;2024-03-23T08:17:30;13.07;;;10.27;;
56363;SDS011;42261;52.094;4.326;2024-03-23T08:20:14;9.50;;;8.80;;
56363;SDS011;42261;52.094;4.326;2024-03-23T08:23:01;9.85;;;8.68;;
56363;SDS011;42261;52.094;4.326;2024-03-23T08:25:46;11.57;;;10.55;;
56363;SDS011;42261;52.094;4.326;2024-03-23T08:28:30;10.05;;;9.02;;
56363;SDS011;42261;52.094;4.326;2024-03-23T08:31:14;17.65;;;9.35;;
56363;SDS011;42261;52.094;4.326;2024-03-23T08:33:58;9.88;;;7.80;;
56363;SDS011;42261;52.094;4.326;2024-03-23T08:36:42;9.00;;;8.32;;
56363;SDS011;42261;52.094;4.326;2024-03-23T08:39:26;9.27;;;8.35;;
56363;SDS011;42261;52.094;4.326;2024-03-23T08:42:10;25.60;;;10.10;;
56363;SDS011;42261;52.094;4.326;2024-03-23T08:44:54;10.30;;;7.75;;
56363;SDS011;42261;52.094;4.326;2024-03-23T08:47:38;8.43;;;7.65;;
56363;SDS011;42261;52.094;4.326;2024-03-23T08:50:22;8.57;;;7.53;;
56363;SDS011;42261;52.094;4.326;2024-03-23T08:53:06;8.05;;;6.93;;
56363;SDS011;42261;52.094;4.326;2024-03-23T08:55:54;13.35;;;7.43;;
56363;SDS011;42261;52.094;4.326;2024-03-23T08:58:38;14.48;;;8.52;;
56363;SDS011;42261;52.094;4.326;2024-03-23T09:01:25;11.02;;;8.07;;
56363;SDS011;42261;52.094;4.326;2024-03-23T09:04:09;9.93;;;7.28;;
56363;SDS011;42261;52.094;4.326;2024-03-23T09:06:53;11.75;;;7.68;;
56363;SDS011;42261;52.094;4.326;2024-03-23T09:15:15;7.60;;;7.05;;
56363;SDS011;42261;52.094;4.326;2024-03-23T09:18:00;8.45;;;7.55;;
56363;SDS011;42261;52.094;4.326;2024-03-23T09:20:48;8.77;;;8.23;;
56363;SDS011;42261;52.094;4.326;2024-03-23T09:23:32;12.27;;;8.07;;
56363;SDS011;42261;52.094;4.326;2024-03-23T09:26:17;10.25;;;7.93;;
56363;SDS011;42261;52.094;4.326;2024-03-23T09:29:03;8.43;;;7.63;;
56363;SDS011;42261;52.094;4.326;2024-03-23T09:31:48;7.68;;;7.05;;
56363;SDS011;42261;52.094;4.326;2024-03-23T09:34:33;7.72;;;7.10;;
56363;SDS011;42261;52.094;4.326;2024-03-23T09:37:17;8.55;;;7.85;;
56363;SDS011;42261;52.094;4.326;2024-03-23T09:40:01;9.18;;;8.48;;
56363;SDS011;42261;52.094;4.326;2024-03-23T09:42:52;10.50;;;7.85;;
56363;SDS011;42261;52.094;4.326;2024-03-23T09:45:40;10.13;;;7.68;;
56363;SDS011;42261;52.094;4.326;2024-03-23T09:48:24;8.33;;;7.63;;
56363;SDS011;42261;52.094;4.326;2024-03-23T09:51:08;8.73;;;7.97;;
56363;SDS011;42261;52.094;4.326;2024-03-23T09:53:53;8.18;;;7.40;;
56363;SDS011;42261;52.094;4.326;2024-03-23T09:56:37;9.38;;;7.43;;
56363;SDS011;42261;52.094;4.326;2024-03-23T09:59:21;8.25;;;7.45;;
56363;SDS011;42261;52.094;4.326;2024-03-23T10:02:05;12.10;;;7.25;;
56363;SDS011;42261;52.094;4.326;2024-03-23T10:04:49;8.60;;;7.80;;
56363;SDS011;42261;52.094;4.326;2024-03-23T10:07:34;9.32;;;6.70;;
56363;SDS011;42261;52.094;4.326;2024-03-23T10:10:19;10.45;;;6.72;;
56363;SDS011;42261;52.094;4.326;2024-03-23T10:13:04;9.10;;;8.18;;
56363;SDS011;42261;52.094;4.326;2024-03-23T10:15:50;7.63;;;6.93;;
56363;SDS011;42261;52.094;4.326;2024-03-23T10:18:40;9.05;;;7.20;;
56363;SDS011;42261;52.094;4.326;2024-03-23T10:21:24;13.32;;;7.93;;
56363;SDS011;42261;52.094;4.326;2024-03-23T10:24:08;9.48;;;7.45;;
56363;SDS011;42261;52.094;4.326;2024-03-23T10:26:56;13.07;;;8.20;;
56363;SDS011;42261;52.094;4.326;2024-03-23T10:29:41;9.38;;;8.40;;
56363;SDS011;42261;52.094;4.326;2024-03-23T10:32:25;9.52;;;8.15;;
56363;SDS011;42261;52.094;4.326;2024-03-23T10:35:21;9.60;;;7.72;;
56363;SDS011;42261;52.094;4.326;2024-03-23T10:38:06;7.65;;;7.10;;
56363;SDS011;42261;52.094;4.326;2024-03-23T10:40:52;10.20;;;6.47;;
56363;SDS011;42261;52.094;4.326;2024-03-23T10:43:38;8.32;;;7.40;;
56363;SDS011;42261;52.094;4.326;2024-03-23T10:46:23;8.77;;;7.03;;
56363;SDS011;42261;52.094;4.326;2024-03-23T10:49:08;9.52;;;6.68;;
56363;SDS011;42261;52.094;4.326;2024-03-23T10:51:52;11.43;;;6.63;;
56363;SDS011;42261;52.094;4.326;2024-03-23T10:54:36;12.25;;;7.10;;
56363;SDS011;42261;52.094;4.326;2024-03-23T10:57:23;7.75;;;5.55;;
56363;SDS011;42261;52.094;4.326;2024-03-23T11:02:54;13.18;;;5.43;;
56363;SDS011;42261;52.094;4.326;2024-03-23T11:05:38;7.18;;;5.78;;
56363;SDS011;42261;52.094;4.326;2024-03-23T11:08:35;13.68;;;6.55;;
56363;SDS011;42261;52.094;4.326;2024-03-23T11:11:21;15.20;;;5.95;;
56363;SDS011;42261;52.094;4.326;2024-03-23T11:14:05;7.45;;;5.20;;
56363;SDS011;42261;52.094;4.326;2024-03-23T11:17:08;7.97;;;6.03;;
56363;SDS011;42261;52.094;4.326;2024-03-23T11:19:54;9.60;;;5.53;;
56363;SDS011;42261;52.094;4.326;2024-03-23T11:25:26;11.23;;;5.20;;
56363;SDS011;42261;52.094;4.326;2024-03-23T11:28:10;8.10;;;5.18;;
56363;SDS011;42261;52.094;4.326;2024-03-23T11:30:55;11.05;;;5.85;;
56363;SDS011;42261;52.094;4.326;2024-03-23T11:33:39;11.38;;;5.22;;
56363;SDS011;42261;52.094;4.326;2024-03-23T11:36:24;9.23;;;5.47;;
56363;SDS011;42261;52.094;4.326;2024-03-23T11:44:46;7.05;;;5.45;;
56363;SDS011;42261;52.094;4.326;2024-03-23T11:47:31;6.53;;;4.80;;
56363;SDS011;42261;52.094;4.326;2024-03-23T11:50:19;6.97;;;4.25;;
56363;SDS011;42261;52.094;4.326;2024-03-23T11:53:11;7.07;;;5.03;;
56363;SDS011;42261;52.094;4.326;2024-03-23T11:55:56;6.00;;;5.03;;
56363;SDS011;42261;52.094;4.326;2024-03-23T11:58:40;5.60;;;4.13;;
56363;SDS011;42261;52.094;4.326;2024-03-23T12:01:24;8.68;;;3.28;;
56363;SDS011;42261;52.094;4.326;2024-03-23T12:04:08;7.20;;;3.08;;
56363;SDS011;42261;52.094;4.326;2024-03-23T12:07:09;6.07;;;3.15;;
56363;SDS011;42261;52.094;4.326;2024-03-23T12:10:12;8.23;;;3.80;;
56363;SDS011;42261;52.094;4.326;2024-03-23T12:13:00;5.35;;;4.82;;
56363;SDS011;42261;52.094;4.326;2024-03-23T12:15:46;10.13;;;5.85;;
56363;SDS011;42261;52.094;4.326;2024-03-23T12:18:30;10.90;;;5.90;;
56363;SDS011;42261;52.094;4.326;2024-03-23T12:21:14;7.03;;;6.43;;
56363;SDS011;42261;52.094;4.326;2024-03-23T12:24:00;4.78;;;4.38;;
56363;SDS011;42261;52.094;4.326;2024-03-23T12:26:45;8.93;;;5.30;;
56363;SDS011;42261;52.094;4.326;2024-03-23T12:29:31;9.77;;;6.35;;
56363;SDS011;42261;52.094;4.326;2024-03-23T12:32:16;7.38;;;6.53;;
56363;SDS011;42261;52.094;4.326;2024-03-23T12:35:00;8.73;;;7.97;;
56363;SDS011;42261;52.094;4.326;2024-03-23T12:37:44;11.38;;;8.05;;
56363;SDS011;42261;52.094;4.326;2024-03-23T12:40:28;8.75;;;7.50;;
56363;SDS011;42261;52.094;4.326;2024-03-23T12:43:13;9.23;;;5.53;;
56363;SDS011;42261;52.094;4.326;2024-03-23T12:45:57;6.82;;;4.78;;
56363;SDS011;42261;52.094;4.326;2024-03-23T12:48:44;5.28;;;4.68;;
56363;SDS011;42261;52.094;4.326;2024-03-23T12:51:28;6.07;;;4.65;;
56363;SDS011;42261;52.094;4.326;2024-03-23T12:54:12;6.28;;;5.03;;
56363;SDS011;42261;52.094;4.326;2024-03-23T12:56:57;6.88;;;4.43;;
56363;SDS011;42261;52.094;4.326;2024-03-23T12:59:41;6.90;;;3.90;;
56363;SDS011;42261;52.094;4.326;2024-03-23T13:02:25;5.22;;;3.72;;
56363;SDS011;42261;52.094;4.326;2024-03-23T13:05:10;8.43;;;4.60;;
56363;SDS011;42261;52.094;4.326;2024-03-23T13:07:54;6.72;;;4.05;;
56363;SDS011;42261;52.094;4.326;2024-03-23T13:10:38;10.57;;;3.70;;
56363;SDS011;42261;52.094;4.326;2024-03-23T13:13:22;5.13;;;4.32;;
56363;SDS011;42261;52.094;4.326;2024-03-23T13:16:06;8.38;;;2.90;;
56363;SDS011;42261;52.094;4.326;2024-03-23T13:18:50;4.53;;;2.70;;
56363;SDS011;42261;52.094;4.326;2024-03-23T13:21:35;6.03;;;2.30;;
56363;SDS011;42261;52.094;4.326;2024-03-23T13:24:21;6.28;;;2.40;;
56363;SDS011;42261;52.094;4.326;2024-03-23T13:27:05;4.75;;;2.35;;
56363;SDS011;42261;52.094;4.326;2024-03-23T13:29:52;5.57;;;2.05;;
56363;SDS011;42261;52.094;4.326;2024-03-23T13:32:36;4.85;;;2.33;;
56363;SDS011;42261;52.094;4.326;2024-03-23T13:35:20;34.15;;;5.07;;
56363;SDS011;42261;52.094;4.326;2024-03-23T13:38:04;6.47;;;3.72;;
56363;SDS011;42261;52.094;4.326;2024-03-23T13:40:59;7.95;;;3.80;;
56363;SDS011;42261;52.094;4.326;2024-03-23T13:43:43;9.10;;;5.35;;
56363;SDS011;42261;52.094;4.326;2024-03-23T13:46:27;7.03;;;4.57;;
56363;SDS011;42261;52.094;4.326;2024-03-23T13:49:33;8.32;;;3.88;;
56363;SDS011;42261;52.094;4.326;2024-03-23T13:52:16;6.25;;;4.47;;
56363;SDS011;42261;52.094;4.326;2024-03-23T13:55:02;4.53;;;3.53;;
56363;SDS011;42261;52.094;4.326;2024-03-23T13:57:46;7.47;;;4.05;;
56363;SDS011;42261;52.094;4.326;2024-03-23T14:00:30;9.27;;;3.42;;
56363;SDS011;42261;52.094;4.326;2024-03-23T14:03:16;5.32;;;3.63;;
56363;SDS011;42261;52.094;4.326;2024-03-23T14:06:00;16.10;;;3.30;;
56363;SDS011;42261;52.094;4.326;2024-03-23T14:08:49;6.60;;;3.97;;
56363;SDS011;42261;52.094;4.326;2024-03-23T14:11:33;6.97;;;3.13;;
56363;SDS011;42261;52.094;4.326;2024-03-23T14:14:17;10.60;;;3.28;;
56363;SDS011;42261;52.094;4.326;2024-03-23T14:17:02;5.30;;;2.70;;
56363;SDS011;42261;52.094;4.326;2024-03-23T14:19:46;4.00;;;2.55;;
56363;SDS011;42261;52.094;4.326;2024-03-23T14:22:31;4.25;;;2.15;;
56363;SDS011;42261;52.094;4.326;2024-03-23T14:25:16;7.78;;;2.88;;
56363;SDS011;42261;52.094;4.326;2024-03-23T14:28:00;8.57;;;2.70;;
56363;SDS011;42261;52.094;4.326;2024-03-23T14:30:44;5.35;;;2.60;;
56363;SDS011;42261;52.094;4.326;2024-03-23T14:33:28;5.35;;;2.50;;
56363;SDS011;42261;52.094;4.326;2024-03-23T14:36:12;6.20;;;2.50;;
56363;SDS011;42261;52.094;4.326;2024-03-23T14:38:56;3.85;;;3.00;;
56363;SDS011;42261;52.094;4.326;2024-03-23T14:41:40;7.57;;;3.65;;
56363;SDS011;42261;52.094;4.326;2024-03-23T14:44:25;10.18;;;4.55;;
56363;SDS011;42261;52.094;4.326;2024-03-23T14:47:10;2.95;;;2.75;;
56363;SDS011;42261;52.094;4.326;2024-03-23T14:49:54;5.55;;;2.65;;
56363;SDS011;42261;52.094;4.326;2024-03-23T14:52:39;5.97;;;2.65;;
56363;SDS011;42261;52.094;4.326;2024-03-23T14:55:23;4.10;;;2.80;;
56363;SDS011;42261;52.094;4.326;2024-03-23T14:58:07;6.97;;;3.67;;
56363;SDS011;42261;52.094;4.326;2024-03-23T15:00:52;7.93;;;4.03;;
56363;SDS011;42261;52.094;4.326;2024-03-23T15:03:39;6.10;;;3.78;;
56363;SDS011;42261;52.094;4.326;2024-03-23T15:06:24;5.90;;;4.10;;
56363;SDS011;42261;52.094;4.326;2024-03-23T15:09:08;4.90;;;3.72;;
56363;SDS011;42261;52.094;4.326;2024-03-23T15:11:55;7.43;;;3.83;;
56363;SDS011;42261;52.094;4.326;2024-03-23T15:14:40;4.82;;;3.53;;
56363;SDS011;42261;52.094;4.326;2024-03-23T15:17:24;6.07;;;3.70;;
56363;SDS011;42261;52.094;4.326;2024-03-23T15:20:08;5.05;;;4.03;;
56363;SDS011;42261;52.094;4.326;2024-03-23T15:22:55;5.10;;;4.35;;
56363;SDS011;42261;52.094;4.326;2024-03-23T15:25:39;5.50;;;3.70;;
56363;SDS011;42261;52.094;4.326;2024-03-23T15:28:23;11.27;;;4.38;;
56363;SDS011;42261;52.094;4.326;2024-03-23T15:31:11;6.30;;;3.67;;
56363;SDS011;42261;52.094;4.326;2024-03-23T15:33:54;5.70;;;2.60;;
56363;SDS011;42261;52.094;4.326;2024-03-23T15:36:39;2.63;;;2.20;;
56363;SDS011;42261;52.094;4.326;2024-03-23T15:39:24;1.88;;;1.70;;
56363;SDS011;42261;52.094;4.326;2024-03-23T15:42:08;6.00;;;2.00;;
56363;SDS011;42261;52.094;4.326;2024-03-23T15:44:55;4.18;;;2.10;;
56363;SDS011;42261;52.094;4.326;2024-03-23T15:47:40;7.82;;;2.10;;
56363;SDS011;42261;52.094;4.326;2024-03-23T15:50:24;6.30;;;2.88;;
56363;SDS011;42261;52.094;4.326;2024-03-23T15:53:10;3.40;;;2.83;;
56363;SDS011;42261;52.094;4.326;2024-03-23T15:55:54;5.47;;;1.85;;
56363;SDS011;42261;52.094;4.326;2024-03-23T15:58:38;3.90;;;2.33;;
56363;SDS011;42261;52.094;4.326;2024-03-23T16:01:22;5.05;;;2.35;;
56363;SDS011;42261;52.094;4.326;2024-03-23T16:04:08;6.20;;;2.47;;
56363;SDS011;42261;52.094;4.326;2024-03-23T16:06:53;6.47;;;2.22;;
56363;SDS011;42261;52.094;4.326;2024-03-23T16:09:37;6.82;;;2.60;;
56363;SDS011;42261;52.094;4.326;2024-03-23T16:12:23;7.00;;;3.03;;
56363;SDS011;42261;52.094;4.326;2024-03-23T16:15:08;8.60;;;5.13;;
56363;SDS011;42261;52.094;4.326;2024-03-23T16:17:54;6.93;;;6.43;;
56363;SDS011;42261;52.094;4.326;2024-03-23T16:20:38;6.95;;;6.60;;
56363;SDS011;42261;52.094;4.326;2024-03-23T16:23:22;12.48;;;7.18;;
56363;SDS011;42261;52.094;4.326;2024-03-23T16:26:06;5.45;;;4.95;;
56363;SDS011;42261;52.094;4.326;2024-03-23T16:28:51;12.02;;;5.03;;
56363;SDS011;42261;52.094;4.326;2024-03-23T16:31:35;7.20;;;6.80;;
56363;SDS011;42261;52.094;4.326;2024-03-23T16:34:19;7.60;;;6.93;;
56363;SDS011;42261;52.094;4.326;2024-03-23T16:37:03;6.15;;;5.85;;
56363;SDS011;42261;52.094;4.326;2024-03-23T16:39:47;4.90;;;4.50;;
56363;SDS011;42261;52.094;4.326;2024-03-23T16:42:32;4.20;;;3.90;;
56363;SDS011;42261;52.094;4.326;2024-03-23T16:45:16;4.00;;;3.70;;
56363;SDS011;42261;52.094;4.326;2024-03-23T16:48:00;4.53;;;4.13;;
56363;SDS011;42261;52.094;4.326;2024-03-23T16:50:48;6.38;;;4.75;;
56363;SDS011;42261;52.094;4.326;2024-03-23T16:53:33;7.70;;;4.75;;
56363;SDS011;42261;52.094;4.326;2024-03-23T16:56:18;6.40;;;4.25;;
56363;SDS011;42261;52.094;4.326;2024-03-23T16:59:02;8.85;;;6.32;;
56363;SDS011;42261;52.094;4.326;2024-03-23T17:01:46;8.48;;;7.13;;
56363;SDS011;42261;52.094;4.326;2024-03-23T17:04:30;12.52;;;10.02;;
56363;SDS011;42261;52.094;4.326;2024-03-23T17:07:15;11.75;;;10.75;;
56363;SDS011;42261;52.094;4.326;2024-03-23T17:09:59;11.13;;;10.10;;
56363;SDS011;42261;52.094;4.326;2024-03-23T17:12:42;12.38;;;11.27;;
56363;SDS011;42261;52.094;4.326;2024-03-23T17:15:27;11.27;;;10.57;;
56363;SDS011;42261;52.094;4.326;2024-03-23T17:18:11;12.40;;;11.50;;
56363;SDS011;42261;52.094;4.326;2024-03-23T17:20:55;11.90;;;10.85;;
56363;SDS011;42261;52.094;4.326;2024-03-23T17:23:41;11.73;;;11.00;;
56363;SDS011;42261;52.094;4.326;2024-03-23T17:26:25;11.68;;;10.98;;
56363;SDS011;42261;52.094;4.326;2024-03-23T17:29:10;12.15;;;11.55;;
56363;SDS011;42261;52.094;4.326;2024-03-23T17:31:54;13.13;;;11.98;;
56363;SDS011;42261;52.094;4.326;2024-03-23T17:34:38;13.23;;;10.73;;
56363;SDS011;42261;52.094;4.326;2024-03-23T17:37:22;12.45;;;11.63;;